Terminal Aerodrome Forecast
Issued by NWS

Home | Current Version | Previous Version | Text Only | Print | Product List | Glossary On
Versions: 1 2 3 4 5 6 7 8 9 10 11 12 13 14
000
FTUS43 KMPX 282105 AAA
TAFRNH
TAF AMD
KRNH 282105Z 2821/2918 18012G20KT P6SM VCTS SCT025CB BKN100
      TEMPO 2821/2824 2SM TSRA BKN025CB
     FM290000 23014G22KT P6SM VCTS BKN040CB
     FM290200 26012G18KT P6SM BKN060
     FM290600 27011KT P6SM OVC012
     FM291400 30012G20KT P6SM BKN015=

USA.gov is the U.S. government's official web portal to all federal, state and local government web resources and services.